Time,TemperatureF,DewpointF,PressureIn,WindDirection,WindDirectionDegrees,WindSpeedMPH,WindSpeedGustMPH,Humidity,HourlyPrecipIn,Conditions,Clouds,dailyrainin,SoftwareType,DateUTC
2013-02-17 00:02:00,33.1,7.8,27.46,WSW,239,3.6,5.8,34,0.00,,---,0.00,VWS V14.01,2013-02-17 08:02:00,
2013-02-17 00:07:00,33.1,7.8,27.46,WSW,241,5.4,6.3,34,0.00,,---,0.00,VWS V14.01,2013-02-17 08:07:00,
2013-02-17 00:12:00,33.1,7.8,27.46,South,191,2.2,3.6,34,0.00,,---,0.00,VWS V14.01,2013-02-17 08:12:00,
2013-02-17 00:17:00,32.9,7.6,27.46,SSW,206,3.6,4.0,34,0.00,,---,0.00,VWS V14.01,2013-02-17 08:17:00,
2013-02-17 00:22:00,32.7,7.5,27.46,SSW,207,0.0,2.7,34,0.00,,---,0.00,VWS V14.01,2013-02-17 08:22:00,
2013-02-17 00:27:00,32.7,7.5,27.46,SSW,193,0.0,0.0,34,0.00,,---,0.00,VWS V14.01,2013-02-17 08:27:00,
2013-02-17 00:32:00,32.7,8.1,27.46,South,188,2.7,2.7,35,0.00,,---,0.00,VWS V14.01,2013-02-17 08:32:00,
2013-02-17 00:37:00,32.5,7.9,27.46,South,188,0.0,0.0,35,0.00,,---,0.00,VWS V14.01,2013-02-17 08:37:00,
2013-02-17 00:42:00,32.5,8.6,27.46,SSW,207,2.7,4.0,36,0.00,,---,0.00,VWS V14.01,2013-02-17 08:42:00,
2013-02-17 00:47:00,32.5,8.6,27.46,SSW,197,4.9,4.9,36,0.00,,---,0.00,VWS V14.01,2013-02-17 08:47:00,
2013-02-17 00:52:00,32.5,9.2,27.46,SW,224,5.8,8.3,37,0.00,,---,0.00,VWS V14.01,2013-02-17 08:52:00,
2013-02-17 00:57:00,32.5,9.2,27.46,SW,226,5.8,5.8,37,0.00,,---,0.00,VWS V14.01,2013-02-17 08:57:00,
2013-02-17 01:02:00,32.7,9.3,27.46,SW,233,6.3,6.3,37,0.00,,---,0.00,VWS V14.01,2013-02-17 09:02:00,
2013-02-17 01:07:00,32.7,9.3,27.46,SW,229,5.4,5.8,37,0.00,,---,0.00,VWS V14.01,2013-02-17 09:07:00,
2013-02-17 01:12:00,32.5,9.2,27.46,SW,229,6.3,7.6,37,0.00,,---,0.00,VWS V14.01,2013-02-17 09:12:00,
2013-02-17 01:17:00,32.5,9.2,27.46,SW,219,7.6,7.6,37,0.00,,---,0.00,VWS V14.01,2013-02-17 09:17:00,
2013-02-17 01:22:00,32.5,9.8,27.46,West,259,6.3,8.1,38,0.00,,---,0.00,VWS V14.01,2013-02-17 09:22:00,
2013-02-17 01:27:00,32.5,9.8,27.46,SW,235,8.3,9.2,38,0.00,,---,0.00,VWS V14.01,2013-02-17 09:27:00,
2013-02-17 01:32:00,32.5,9.8,27.46,West,267,4.0,5.4,38,0.00,,---,0.00,VWS V14.01,2013-02-17 09:32:00,
2013-02-17 01:37:00,32.7,9.9,27.46,SW,229,7.6,8.1,38,0.00,,---,0.00,VWS V14.01,2013-02-17 09:37:00,
2013-02-17 01:42:00,32.7,9.3,27.46,WSW,256,8.1,8.7,37,0.00,,---,0.00,VWS V14.01,2013-02-17 09:42:00,
2013-02-17 01:47:00,32.7,9.3,27.49,WSW,246,5.4,6.3,37,0.00,,---,0.00,VWS V14.01,2013-02-17 09:47:00,
2013-02-17 01:52:00,32.7,9.3,27.49,SW,231,8.1,8.1,37,0.00,,---,0.00,VWS V14.01,2013-02-17 09:52:00,
2013-02-17 01:57:00,32.7,9.3,27.49,West,261,6.3,6.3,37,0.00,,---,0.00,VWS V14.01,2013-02-17 09:57:00,
2013-02-17 02:02:00,32.7,9.3,27.49,West,263,7.2,7.2,37,0.00,,---,0.00,VWS V14.01,2013-02-17 10:02:00,
2013-02-17 02:07:00,32.5,9.8,27.49,SW,215,8.3,8.3,38,0.00,,---,0.00,VWS V14.01,2013-02-17 10:07:00,
2013-02-17 02:12:00,32.5,9.8,27.49,West,262,5.8,8.7,38,0.00,,---,0.00,VWS V14.01,2013-02-17 10:12:00,
2013-02-17 02:17:00,32.4,9.6,27.49,West,259,6.3,8.1,38,0.00,,---,0.00,VWS V14.01,2013-02-17 10:17:00,
2013-02-17 02:22:00,32.2,9.4,27.49,SW,222,4.5,6.3,38,0.00,,---,0.00,VWS V14.01,2013-02-17 10:22:00,
2013-02-17 02:27:00,32.2,9.4,27.49,WSW,240,3.6,5.8,38,0.00,,---,0.00,VWS V14.01,2013-02-17 10:27:00,
2013-02-17 02:32:00,32.2,9.4,27.49,WSW,237,6.3,7.2,38,0.00,,---,0.00,VWS V14.01,2013-02-17 10:32:00,
2013-02-17 02:37:00,32.2,9.4,27.49,SW,235,5.4,5.4,38,0.00,,---,0.00,VWS V14.01,2013-02-17 10:37:00,
2013-02-17 02:42:00,32.2,9.4,27.49,West,270,6.3,6.7,38,0.00,,---,0.00,VWS V14.01,2013-02-17 10:42:00,
2013-02-17 02:47:00,32.2,8.9,27.49,WNW,288,4.0,4.0,37,0.00,,---,0.00,VWS V14.01,2013-02-17 10:47:00,
2013-02-17 02:52:00,32.2,8.9,27.49,WSW,258,3.6,5.4,37,0.00,,---,0.00,VWS V14.01,2013-02-17 10:52:00,
2013-02-17 02:57:00,32.2,8.9,27.49,WSW,244,5.4,5.8,37,0.00,,---,0.00,VWS V14.01,2013-02-17 10:57:00,
2013-02-17 03:02:00,32.2,8.2,27.49,WSW,257,6.3,6.3,36,0.00,,---,0.00,VWS V14.01,2013-02-17 11:02:00,
2013-02-17 03:07:00,32.4,8.4,27.49,West,277,4.9,5.8,36,0.00,,---,0.00,VWS V14.01,2013-02-17 11:07:00,
2013-02-17 03:12:00,32.4,8.4,27.49,SW,220,4.0,5.4,36,0.00,,---,0.00,VWS V14.01,2013-02-17 11:12:00,
2013-02-17 03:17:00,32.5,9.2,27.49,NW,309,7.6,7.6,37,0.00,,---,0.00,VWS V14.01,2013-02-17 11:17:00,
2013-02-17 03:22:00,32.5,10.9,27.49,WNW,287,4.9,4.9,40,0.00,,---,0.00,VWS V14.01,2013-02-17 11:22:00,
2013-02-17 03:27:00,32.5,12.5,27.49,WNW,301,5.4,7.6,43,0.00,,---,0.00,VWS V14.01,2013-02-17 11:27:00,
2013-02-17 03:32:00,32.5,14.1,27.49,WNW,288,8.3,8.3,46,0.00,,---,0.00,VWS V14.01,2013-02-17 11:32:00,
2013-02-17 03:37:00,32.5,15.0,27.49,WSW,238,0.0,3.1,48,0.00,,---,0.00,VWS V14.01,2013-02-17 11:37:00,
2013-02-17 03:42:00,32.5,15.5,27.49,West,272,2.2,2.7,49,0.00,,---,0.00,VWS V14.01,2013-02-17 11:42:00,
2013-02-17 03:47:00,32.5,16.0,27.49,SW,223,4.9,5.8,50,0.00,,---,0.00,VWS V14.01,2013-02-17 11:47:00,
2013-02-17 03:52:00,32.4,15.8,27.49,WSW,238,5.4,5.4,50,0.00,,---,0.00,VWS V14.01,2013-02-17 11:52:00,
2013-02-17 03:57:00,32.2,16.1,27.49,SW,224,4.0,5.4,51,0.00,,---,0.00,VWS V14.01,2013-02-17 11:57:00,
2013-02-17 04:02:00,32.2,16.5,27.49,South,188,2.7,3.6,52,0.00,,---,0.00,VWS V14.01,2013-02-17 12:02:00,
2013-02-17 04:07:00,32.2,17.0,27.49,SW,214,2.7,4.9,53,0.00,,---,0.00,VWS V14.01,2013-02-17 12:07:00,
2013-02-17 04:12:00,32.0,16.8,27.49,SSW,194,0.0,0.0,53,0.00,,---,0.00,VWS V14.01,2013-02-17 12:12:00,
2013-02-17 04:17:00,31.8,17.1,27.49,SSW,203,0.0,0.0,54,0.00,,---,0.00,VWS V14.01,2013-02-17 12:17:00,
2013-02-17 04:22:00,31.8,17.1,27.49,SW,221,0.0,3.1,54,0.00,,---,0.00,VWS V14.01,2013-02-17 12:22:00,
2013-02-17 04:27:00,31.6,16.9,27.49,WSW,243,2.2,3.6,54,0.00,,---,0.00,VWS V14.01,2013-02-17 12:27:00,
2013-02-17 04:32:00,31.3,15.7,27.49,SW,219,5.4,5.4,52,0.00,,---,0.00,VWS V14.01,2013-02-17 12:32:00,
2013-02-17 04:37:00,31.1,15.1,27.49,SSW,204,4.9,8.1,51,0.00,,---,0.00,VWS V14.01,2013-02-17 12:37:00,
2013-02-17 04:42:00,30.9,14.5,27.49,SW,224,5.8,5.8,50,0.00,,---,0.00,VWS V14.01,2013-02-17 12:42:00,
2013-02-17 04:47:00,30.7,13.9,27.49,SW,227,6.3,8.3,49,0.00,,---,0.00,VWS V14.01,2013-02-17 12:47:00,
2013-02-17 04:52:00,30.7,13.9,27.49,SW,229,5.4,7.6,49,0.00,,---,0.00,VWS V14.01,2013-02-17 12:52:00,
2013-02-17 04:57:00,30.6,13.2,27.49,WSW,241,8.1,8.1,48,0.00,,---,0.00,VWS V14.01,2013-02-17 12:57:00,
2013-02-17 05:02:00,30.4,12.6,27.49,SW,233,4.9,5.4,47,0.00,,---,0.00,VWS V14.01,2013-02-17 13:02:00,
2013-02-17 05:07:00,30.2,12.4,27.49,WSW,245,5.4,5.4,47,0.00,,---,0.00,VWS V14.01,2013-02-17 13:07:00,
2013-02-17 05:12:00,29.8,12.1,27.49,SW,217,7.6,7.6,47,0.00,,---,0.00,VWS V14.01,2013-02-17 13:12:00,
2013-02-17 05:17:00,29.8,12.1,27.49,SW,230,9.6,9.6,47,0.00,,---,0.00,VWS V14.01,2013-02-17 13:17:00,
2013-02-17 05:22:00,29.7,11.4,27.49,WSW,251,7.6,8.1,46,0.00,,---,0.00,VWS V14.01,2013-02-17 13:22:00,
2013-02-17 05:27:00,29.5,11.3,27.49,SW,233,5.8,7.2,46,0.00,,---,0.00,VWS V14.01,2013-02-17 13:27:00,
2013-02-17 05:32:00,29.3,11.1,27.49,SSW,209,5.4,5.8,46,0.00,,---,0.00,VWS V14.01,2013-02-17 13:32:00,
2013-02-17 05:37:00,29.1,10.4,27.52,WSW,237,5.4,7.6,45,0.00,,---,0.00,VWS V14.01,2013-02-17 13:37:00,
2013-02-17 05:42:00,28.9,10.3,27.52,SW,230,4.0,4.0,45,0.00,,---,0.00,VWS V14.01,2013-02-17 13:42:00,
2013-02-17 05:47:00,28.6,9.9,27.52,South,188,3.1,3.1,45,0.00,,---,0.00,VWS V14.01,2013-02-17 13:47:00,
2013-02-17 05:52:00,28.4,10.3,27.52,SW,219,3.1,4.0,46,0.00,,---,0.00,VWS V14.01,2013-02-17 13:52:00,
2013-02-17 05:57:00,28.4,10.8,27.52,SSW,194,3.1,3.6,47,0.00,,---,0.00,VWS V14.01,2013-02-17 13:57:00,
2013-02-17 06:02:00,28.6,10.9,27.52,SSW,205,3.6,5.8,47,0.00,,---,0.00,VWS V14.01,2013-02-17 14:02:00,
2013-02-17 06:07:00,28.4,10.3,27.52,SW,217,3.6,3.6,46,0.00,,---,0.00,VWS V14.01,2013-02-17 14:07:00,
2013-02-17 06:12:00,28.4,10.3,27.52,WSW,237,5.4,7.6,46,0.00,,---,0.00,VWS V14.01,2013-02-17 14:12:00,
2013-02-17 06:17:00,28.2,10.1,27.52,SSW,203,5.4,6.3,46,0.00,,---,0.00,VWS V14.01,2013-02-17 14:17:00,
2013-02-17 06:22:00,28.2,10.1,27.52,WSW,258,4.0,4.9,46,0.00,,---,0.00,VWS V14.01,2013-02-17 14:22:00,
2013-02-17 06:27:00,28.2,10.1,27.52,SW,226,7.6,7.6,46,0.00,,---,0.00,VWS V14.01,2013-02-17 14:27:00,
2013-02-17 06:32:00,28.0,9.9,27.52,SW,220,6.3,6.3,46,0.00,,---,0.00,VWS V14.01,2013-02-17 14:32:00,
2013-02-17 06:37:00,28.0,9.9,27.52,SW,233,5.8,6.3,46,0.00,,---,0.00,VWS V14.01,2013-02-17 14:37:00,
2013-02-17 06:42:00,27.9,9.8,27.52,WSW,245,7.2,8.1,46,0.00,,---,0.00,VWS V14.01,2013-02-17 14:42:00,
2013-02-17 06:47:00,27.9,9.8,27.52,WSW,237,6.3,6.3,46,0.00,,---,0.00,VWS V14.01,2013-02-17 14:47:00,
2013-02-17 06:52:00,27.7,9.6,27.52,SW,230,6.3,8.1,46,0.00,,---,0.00,VWS V14.01,2013-02-17 14:52:00,
2013-02-17 06:57:00,27.5,9.9,27.52,SW,217,4.9,5.8,47,0.00,,---,0.00,VWS V14.01,2013-02-17 14:57:00,
2013-02-17 07:02:00,27.5,10.4,27.52,SSW,198,5.4,5.4,48,0.00,,---,0.00,VWS V14.01,2013-02-17 15:02:00,
2013-02-17 07:07:00,27.5,10.4,27.52,SSW,202,5.4,5.8,48,0.00,,---,0.00,VWS V14.01,2013-02-17 15:07:00,
2013-02-17 07:12:00,27.5,10.4,27.52,SSW,205,4.0,5.4,48,0.00,,---,0.00,VWS V14.01,2013-02-17 15:12:00,
2013-02-17 07:17:00,27.3,10.2,27.52,SW,215,5.4,5.4,48,0.00,,---,0.00,VWS V14.01,2013-02-17 15:17:00,
2013-02-17 07:22:00,27.3,9.8,27.52,SW,232,3.6,5.4,47,0.00,,---,0.00,VWS V14.01,2013-02-17 15:22:00,
2013-02-17 07:27:00,27.5,9.9,27.52,WSW,238,4.0,4.5,47,0.00,,---,0.00,VWS V14.01,2013-02-17 15:27:00,
2013-02-17 07:32:00,27.9,10.3,27.52,SSW,208,3.6,4.5,47,0.00,,---,0.00,VWS V14.01,2013-02-17 15:32:00,
2013-02-17 07:37:00,28.2,9.6,27.52,SW,221,6.3,6.3,45,0.00,,---,0.00,VWS V14.01,2013-02-17 15:37:00,
2013-02-17 07:42:00,28.6,9.4,27.52,SSW,210,5.4,5.4,44,0.00,,---,0.00,VWS V14.01,2013-02-17 15:42:00,
2013-02-17 07:47:00,29.5,9.2,27.52,South,187,2.7,4.0,42,0.00,,---,0.00,VWS V14.01,2013-02-17 15:47:00,
2013-02-17 07:52:00,30.0,9.2,27.52,South,191,2.2,3.1,41,0.00,,---,0.00,VWS V14.01,2013-02-17 15:52:00,
2013-02-17 07:57:00,31.1,9.1,27.52,South,178,0.0,3.6,39,0.00,,---,0.00,VWS V14.01,2013-02-17 15:57:00,
2013-02-17 08:02:00,32.2,8.2,27.52,SSW,197,2.2,3.1,36,0.00,,---,0.00,VWS V14.01,2013-02-17 16:02:00,
2013-02-17 08:07:00,31.6,7.1,27.52,SSW,195,3.1,3.6,35,0.00,,---,0.00,VWS V14.01,2013-02-17 16:07:00,
2013-02-17 08:12:00,30.4,7.8,27.52,SSW,204,2.7,4.0,38,0.00,,---,0.00,VWS V14.01,2013-02-17 16:12:00,
2013-02-17 08:17:00,29.8,9.0,27.52,SSW,199,4.5,4.5,41,0.00,,---,0.00,VWS V14.01,2013-02-17 16:17:00,
2013-02-17 08:22:00,32.0,7.5,27.55,SSW,192,3.1,3.1,35,0.00,,---,0.00,VWS V14.01,2013-02-17 16:22:00,
2013-02-17 08:27:00,31.6,7.1,27.55,South,185,4.9,4.9,35,0.00,,---,0.00,VWS V14.01,2013-02-17 16:27:00,
2013-02-17 08:32:00,31.1,7.3,27.55,SSW,201,2.7,3.6,36,0.00,,---,0.00,VWS V14.01,2013-02-17 16:32:00,
2013-02-17 08:37:00,30.6,8.0,27.55,SSW,198,3.1,4.0,38,0.00,,---,0.00,VWS V14.01,2013-02-17 16:37:00,
2013-02-17 08:42:00,30.6,8.6,27.55,SW,220,3.6,4.5,39,0.00,,---,0.00,VWS V14.01,2013-02-17 16:42:00,
2013-02-17 08:47:00,30.6,8.0,27.55,SSW,212,6.3,8.1,38,0.00,,---,0.00,VWS V14.01,2013-02-17 16:47:00,
2013-02-17 08:52:00,30.7,8.1,27.55,South,181,4.0,4.0,38,0.00,,---,0.00,VWS V14.01,2013-02-17 16:52:00,
2013-02-17 08:57:00,31.3,8.0,27.55,SSW,198,4.0,4.0,37,0.00,,---,0.00,VWS V14.01,2013-02-17 16:57:00,
2013-02-17 09:02:00,32.2,8.2,27.55,SSW,203,4.0,4.9,36,0.00,,---,0.00,VWS V14.01,2013-02-17 17:02:00,
2013-02-17 09:07:00,32.9,7.6,27.55,SSW,195,4.0,4.0,34,0.00,,---,0.00,VWS V14.01,2013-02-17 17:07:00,
2013-02-17 09:12:00,33.6,7.6,27.55,SW,229,5.4,6.3,33,0.00,,---,0.00,VWS V14.01,2013-02-17 17:12:00,
2013-02-17 09:17:00,34.2,6.7,27.55,SSW,212,5.4,5.4,31,0.00,,---,0.00,VWS V14.01,2013-02-17 17:17:00,
2013-02-17 09:22:00,35.1,7.5,27.55,SSW,203,3.6,4.0,31,0.00,,---,0.00,VWS V14.01,2013-02-17 17:22:00,
2013-02-17 09:27:00,35.1,7.5,27.55,SSW,199,4.0,5.8,31,0.00,,---,0.00,VWS V14.01,2013-02-17 17:27:00,
2013-02-17 09:32:00,35.6,7.2,27.55,SSW,197,3.6,3.6,30,0.00,,---,0.00,VWS V14.01,2013-02-17 17:32:00,
2013-02-17 09:37:00,36.1,7.7,27.55,SSW,205,4.9,5.8,30,0.00,,---,0.00,VWS V14.01,2013-02-17 17:37:00,
2013-02-17 09:42:00,37.0,8.5,27.55,SSW,208,5.4,5.4,30,0.00,,---,0.00,VWS V14.01,2013-02-17 17:42:00,
2013-02-17 09:47:00,37.2,8.6,27.55,South,173,2.7,2.7,30,0.00,,---,0.00,VWS V14.01,2013-02-17 17:47:00,
2013-02-17 09:52:00,37.4,8.1,27.55,South,190,2.2,2.7,29,0.00,,---,0.00,VWS V14.01,2013-02-17 17:52:00,
2013-02-17 09:57:00,37.6,8.2,27.55,SSW,202,4.0,4.9,29,0.00,,---,0.00,VWS V14.01,2013-02-17 17:57:00,
2013-02-17 10:02:00,38.5,9.0,27.55,South,182,5.4,5.4,29,0.00,,---,0.00,VWS V14.01,2013-02-17 18:02:00,
2013-02-17 10:07:00,39.0,9.5,27.55,South,181,3.1,3.1,29,0.00,,---,0.00,VWS V14.01,2013-02-17 18:07:00,
2013-02-17 10:12:00,39.0,9.5,27.55,SW,223,3.6,5.4,29,0.00,,---,0.00,VWS V14.01,2013-02-17 18:12:00,
2013-02-17 10:17:00,39.0,9.5,27.55,SSW,199,6.3,6.3,29,0.00,,---,0.00,VWS V14.01,2013-02-17 18:17:00,
2013-02-17 10:22:00,39.7,7.7,27.55,SSW,207,8.1,8.7,26,0.00,,---,0.00,VWS V14.01,2013-02-17 18:22:00,
2013-02-17 10:27:00,40.3,8.1,27.55,SSW,195,2.7,2.7,26,0.00,,---,0.00,VWS V14.01,2013-02-17 18:27:00,
2013-02-17 10:32:00,40.8,8.6,27.55,South,191,7.6,7.6,26,0.00,,---,0.00,VWS V14.01,2013-02-17 18:32:00,
2013-02-17 10:37:00,40.5,9.9,27.55,SW,218,4.0,5.4,28,0.00,,---,0.00,VWS V14.01,2013-02-17 18:37:00,
2013-02-17 10:42:00,41.9,9.5,27.55,SW,236,4.0,5.4,26,0.00,,---,0.00,VWS V14.01,2013-02-17 18:42:00,
2013-02-17 10:47:00,42.3,7.1,27.55,SW,220,6.3,8.3,23,0.00,,---,0.00,VWS V14.01,2013-02-17 18:47:00,
2013-02-17 10:52:00,42.3,7.1,27.55,SW,214,6.7,7.6,23,0.00,,---,0.00,VWS V14.01,2013-02-17 18:52:00,
2013-02-17 10:57:00,42.1,7.0,27.55,West,273,7.6,7.6,23,0.00,,---,0.00,VWS V14.01,2013-02-17 18:57:00,
2013-02-17 11:02:00,42.1,7.0,27.55,West,267,6.3,6.3,23,0.00,,---,0.00,VWS V14.01,2013-02-17 19:02:00,
2013-02-17 11:07:00,42.3,7.1,27.55,WSW,246,8.3,8.3,23,0.00,,---,0.00,VWS V14.01,2013-02-17 19:07:00,
2013-02-17 11:12:00,42.6,7.4,27.55,West,268,4.9,6.7,23,0.00,,---,0.00,VWS V14.01,2013-02-17 19:12:00,
2013-02-17 11:17:00,43.3,8.0,27.55,West,275,5.8,5.8,23,0.00,,---,0.00,VWS V14.01,2013-02-17 19:17:00,
2013-02-17 11:22:00,43.5,8.2,27.55,WNW,294,5.4,6.3,23,0.00,,---,0.00,VWS V14.01,2013-02-17 19:22:00,
2013-02-17 11:27:00,43.7,5.3,27.55,West,268,5.4,5.4,20,0.00,,---,0.00,VWS V14.01,2013-02-17 19:27:00,
2013-02-17 11:32:00,43.9,5.4,27.55,West,259,8.1,8.1,20,0.00,,---,0.00,VWS V14.01,2013-02-17 19:32:00,
2013-02-17 11:37:00,43.5,5.1,27.55,West,268,7.6,7.6,20,0.00,,---,0.00,VWS V14.01,2013-02-17 19:37:00,
2013-02-17 11:42:00,43.2,4.8,27.55,WSW,258,7.6,7.6,20,0.00,,---,0.00,VWS V14.01,2013-02-17 19:42:00,
2013-02-17 11:47:00,42.8,4.5,27.55,SW,231,10.5,10.5,20,0.00,,---,0.00,VWS V14.01,2013-02-17 19:47:00,
2013-02-17 11:52:00,42.6,5.4,27.55,NW,310,8.1,10.1,21,0.00,,---,0.00,VWS V14.01,2013-02-17 19:52:00,
2013-02-17 11:57:00,42.6,5.4,27.55,West,268,6.3,8.1,21,0.00,,---,0.00,VWS V14.01,2013-02-17 19:57:00,
2013-02-17 12:02:00,42.6,5.4,27.55,West,269,8.7,8.7,21,0.00,,---,0.00,VWS V14.01,2013-02-17 20:02:00,
2013-02-17 12:07:00,42.8,4.5,27.55,WNW,291,8.1,8.7,20,0.00,,---,0.00,VWS V14.01,2013-02-17 20:07:00,
2013-02-17 12:12:00,42.4,5.3,27.55,WNW,290,8.3,8.3,21,0.00,,---,0.00,VWS V14.01,2013-02-17 20:12:00,
2013-02-17 12:17:00,41.5,4.5,27.55,WSW,253,7.6,10.1,21,0.00,,---,0.00,VWS V14.01,2013-02-17 20:17:00,
2013-02-17 12:21:00,41.2,4.2,27.55,NW,311,10.5,10.5,21,0.00,,---,0.00,VWS V14.01,2013-02-17 20:21:00,
2013-02-17 12:26:00,41.2,4.2,27.55,WNW,303,8.1,11.0,21,0.00,,---,0.00,VWS V14.01,2013-02-17 20:26:00,
2013-02-17 12:31:00,41.4,4.4,27.55,NW,306,13.2,13.2,21,0.00,,---,0.00,VWS V14.01,2013-02-17 20:31:00,
2013-02-17 12:36:00,41.2,4.2,27.55,WNW,303,8.1,8.3,21,0.00,,---,0.00,VWS V14.01,2013-02-17 20:36:00,
2013-02-17 12:41:00,41.2,4.2,27.55,West,274,7.2,8.1,21,0.00,,---,0.00,VWS V14.01,2013-02-17 20:41:00,
2013-02-17 12:46:00,41.5,4.5,27.55,West,260,6.7,6.7,21,0.00,,---,0.00,VWS V14.01,2013-02-17 20:46:00,
2013-02-17 12:51:00,41.5,4.5,27.55,West,272,8.1,10.5,21,0.00,,---,0.00,VWS V14.01,2013-02-17 20:51:00,
2013-02-17 12:56:00,41.7,4.7,27.55,NW,306,8.1,8.1,21,0.00,,---,0.00,VWS V14.01,2013-02-17 20:56:00,
2013-02-17 13:01:00,42.4,5.3,27.55,West,272,8.1,8.1,21,0.00,,---,0.00,VWS V14.01,2013-02-17 21:01:00,
2013-02-17 13:06:00,42.3,5.1,27.55,West,265,8.1,8.3,21,0.00,,---,0.00,VWS V14.01,2013-02-17 21:06:00,
2013-02-17 13:11:00,42.4,5.3,27.55,West,278,10.1,12.3,21,0.00,,---,0.00,VWS V14.01,2013-02-17 21:11:00,
2013-02-17 13:16:00,42.4,5.3,27.55,WNW,292,9.2,9.2,21,0.00,,---,0.00,VWS V14.01,2013-02-17 21:16:00,
2013-02-17 13:21:00,42.3,5.1,27.55,WNW,295,11.0,11.4,21,0.00,,---,0.00,VWS V14.01,2013-02-17 21:21:00,
2013-02-17 13:26:00,42.4,5.3,27.55,West,271,5.4,6.3,21,0.00,,---,0.00,VWS V14.01,2013-02-17 21:26:00,
2013-02-17 13:31:00,42.6,5.4,27.55,West,271,12.8,12.8,21,0.00,,---,0.00,VWS V14.01,2013-02-17 21:31:00,
2013-02-17 13:36:00,42.3,5.1,27.55,WSW,244,5.8,5.8,21,0.00,,---,0.00,VWS V14.01,2013-02-17 21:36:00,
2013-02-17 13:41:00,42.6,5.4,27.55,WNW,287,10.1,10.1,21,0.00,,---,0.00,VWS V14.01,2013-02-17 21:41:00,
2013-02-17 13:46:00,42.4,5.3,27.55,SSW,211,5.8,6.7,21,0.00,,---,0.00,VWS V14.01,2013-02-17 21:46:00,
2013-02-17 13:51:00,42.3,5.1,27.55,WSW,246,10.5,10.5,21,0.00,,---,0.00,VWS V14.01,2013-02-17 21:51:00,
2013-02-17 13:56:00,42.6,5.4,27.55,SW,217,8.1,10.5,21,0.00,,---,0.00,VWS V14.01,2013-02-17 21:56:00,
2013-02-17 14:01:00,42.4,5.3,27.55,WSW,237,8.3,8.3,21,0.00,,---,0.00,VWS V14.01,2013-02-17 22:01:00,
2013-02-17 14:06:00,42.4,5.3,27.55,WSW,249,5.4,7.6,21,0.00,,---,0.00,VWS V14.01,2013-02-17 22:06:00,
2013-02-17 14:11:00,42.4,5.3,27.55,WNW,285,8.3,8.3,21,0.00,,---,0.00,VWS V14.01,2013-02-17 22:11:00,
2013-02-17 14:16:00,42.4,5.3,27.55,NW,307,8.3,10.1,21,0.00,,---,0.00,VWS V14.01,2013-02-17 22:16:00,
2013-02-17 14:21:00,42.4,5.3,27.55,WSW,251,11.9,11.9,21,0.00,,---,0.00,VWS V14.01,2013-02-17 22:21:00,
2013-02-17 14:26:00,42.3,5.1,27.55,West,274,5.8,5.8,21,0.00,,---,0.00,VWS V14.01,2013-02-17 22:26:00,
2013-02-17 14:31:00,42.3,5.1,27.55,NW,315,5.4,5.4,21,0.00,,---,0.00,VWS V14.01,2013-02-17 22:31:00,
2013-02-17 14:36:00,43.0,4.7,27.55,WSW,250,5.4,5.4,20,0.00,,---,0.00,VWS V14.01,2013-02-17 22:36:00,
2013-02-17 14:41:00,42.6,5.4,27.55,SW,225,5.8,5.8,21,0.00,,---,0.00,VWS V14.01,2013-02-17 22:41:00,
2013-02-17 14:46:00,42.4,5.3,27.55,West,265,5.8,5.8,21,0.00,,---,0.00,VWS V14.01,2013-02-17 22:46:00,
2013-02-17 14:51:00,42.4,5.3,27.55,NW,304,5.4,5.4,21,0.00,,---,0.00,VWS V14.01,2013-02-17 22:51:00,
2013-02-17 14:56:00,42.3,5.1,27.55,NNW,334,4.9,7.6,21,0.00,,---,0.00,VWS V14.01,2013-02-17 22:56:00,
2013-02-17 15:01:00,41.9,4.8,27.55,NW,307,8.3,8.3,21,0.00,,---,0.00,VWS V14.01,2013-02-17 23:01:00,
2013-02-17 15:06:00,41.4,4.4,27.55,SW,225,6.3,6.3,21,0.00,,---,0.00,VWS V14.01,2013-02-17 23:06:00,
2013-02-17 15:11:00,41.2,4.2,27.55,WNW,301,7.6,7.6,21,0.00,,---,0.00,VWS V14.01,2013-02-17 23:11:00,
2013-02-17 15:16:00,41.4,4.4,27.55,WNW,299,8.1,8.1,21,0.00,,---,0.00,VWS V14.01,2013-02-17 23:16:00,
2013-02-17 15:21:00,42.1,5.0,27.55,WSW,257,5.8,6.3,21,0.00,,---,0.00,VWS V14.01,2013-02-17 23:21:00,
2013-02-17 15:26:00,42.1,5.0,27.55,WNW,288,5.4,5.4,21,0.00,,---,0.00,VWS V14.01,2013-02-17 23:26:00,
2013-02-17 15:31:00,42.1,5.0,27.55,West,272,5.8,5.8,21,0.00,,---,0.00,VWS V14.01,2013-02-17 23:31:00,
2013-02-17 15:36:00,41.7,4.7,27.55,West,261,4.0,6.3,21,0.00,,---,0.00,VWS V14.01,2013-02-17 23:36:00,
2013-02-17 15:41:00,41.4,4.4,27.55,WSW,253,8.3,8.7,21,0.00,,---,0.00,VWS V14.01,2013-02-17 23:41:00,
2013-02-17 15:46:00,41.7,4.7,27.55,SW,219,5.4,5.4,21,0.00,,---,0.00,VWS V14.01,2013-02-17 23:46:00,
2013-02-17 15:51:00,41.9,4.8,27.55,West,281,5.8,7.6,21,0.00,,---,0.00,VWS V14.01,2013-02-17 23:51:00,
2013-02-17 15:56:00,41.9,4.8,27.55,West,265,5.8,5.8,21,0.00,,---,0.00,VWS V14.01,2013-02-17 23:56:00,
2013-02-17 16:01:00,41.4,4.4,27.55,West,266,4.0,4.9,21,0.00,,---,0.00,VWS V14.01,2013-02-18 00:01:00,
2013-02-17 16:06:00,40.6,3.8,27.55,West,269,3.1,5.8,21,0.00,,---,0.00,VWS V14.01,2013-02-18 00:06:00,
2013-02-17 16:11:00,40.3,3.5,27.55,West,267,3.1,4.9,21,0.00,,---,0.00,VWS V14.01,2013-02-18 00:11:00,
2013-02-17 16:16:00,40.5,3.6,27.55,West,278,4.0,4.9,21,0.00,,---,0.00,VWS V14.01,2013-02-18 00:16:00,
2013-02-17 16:21:00,40.6,3.8,27.55,NW,306,5.8,6.7,21,0.00,,---,0.00,VWS V14.01,2013-02-18 00:21:00,
2013-02-17 16:26:00,40.3,3.5,27.55,WSW,245,6.3,8.1,21,0.00,,---,0.00,VWS V14.01,2013-02-18 00:26:00,
2013-02-17 16:31:00,39.7,3.0,27.55,WNW,292,4.9,5.4,21,0.00,,---,0.00,VWS V14.01,2013-02-18 00:31:00,
2013-02-17 16:36:00,39.6,2.9,27.55,West,271,6.3,6.3,21,0.00,,---,0.00,VWS V14.01,2013-02-18 00:36:00,
2013-02-17 16:41:00,39.4,2.7,27.55,West,281,7.6,7.6,21,0.00,,---,0.00,VWS V14.01,2013-02-18 00:41:00,
2013-02-17 16:46:00,39.4,2.7,27.55,West,275,4.0,5.8,21,0.00,,---,0.00,VWS V14.01,2013-02-18 00:46:00,
2013-02-17 16:51:00,39.2,2.6,27.55,WNW,291,6.3,6.3,21,0.00,,---,0.00,VWS V14.01,2013-02-18 00:51:00,
2013-02-17 16:56:00,38.8,2.3,27.55,WNW,298,5.4,6.3,21,0.00,,---,0.00,VWS V14.01,2013-02-18 00:56:00,
2013-02-17 17:01:00,38.5,2.0,27.55,West,265,2.7,5.4,21,0.00,,---,0.00,VWS V14.01,2013-02-18 01:01:00,
2013-02-17 17:06:00,38.1,1.6,27.55,WNW,285,5.8,5.8,21,0.00,,---,0.00,VWS V14.01,2013-02-18 01:06:00,
2013-02-17 17:11:00,38.1,1.6,27.55,WNW,296,3.6,5.8,21,0.00,,---,0.00,VWS V14.01,2013-02-18 01:11:00,
2013-02-17 17:16:00,37.8,1.4,27.55,West,280,3.6,3.6,21,0.00,,---,0.00,VWS V14.01,2013-02-18 01:16:00,
2013-02-17 17:21:00,37.4,1.0,27.55,West,276,2.7,2.7,21,0.00,,---,0.00,VWS V14.01,2013-02-18 01:21:00,
2013-02-17 17:26:00,37.2,1.9,27.55,West,280,2.7,2.7,22,0.00,,---,0.00,VWS V14.01,2013-02-18 01:26:00,
2013-02-17 17:31:00,37.0,1.7,27.55,West,271,3.1,3.1,22,0.00,,---,0.00,VWS V14.01,2013-02-18 01:31:00,
2013-02-17 17:36:00,37.0,1.7,27.55,West,275,2.7,3.6,22,0.00,,---,0.00,VWS V14.01,2013-02-18 01:36:00,
2013-02-17 17:41:00,36.9,1.6,27.55,West,276,0.0,0.0,22,0.00,,---,0.00,VWS V14.01,2013-02-18 01:41:00,
2013-02-17 17:46:00,36.7,1.4,27.55,West,271,0.0,0.0,22,0.00,,---,0.00,VWS V14.01,2013-02-18 01:46:00,
2013-02-17 17:51:00,36.5,1.3,27.55,WSW,250,3.1,3.1,22,0.00,,---,0.00,VWS V14.01,2013-02-18 01:51:00,
2013-02-17 17:56:00,36.3,1.1,27.55,WSW,239,4.0,4.0,22,0.00,,---,0.00,VWS V14.01,2013-02-18 01:56:00,
2013-02-17 18:01:00,36.3,1.1,27.55,SW,234,4.5,4.5,22,0.00,,---,0.00,VWS V14.01,2013-02-18 02:01:00,
2013-02-17 18:06:00,36.3,1.1,27.55,SW,232,5.4,5.4,22,0.00,,---,0.00,VWS V14.01,2013-02-18 02:06:00,
2013-02-17 18:11:00,36.3,1.1,27.55,SW,230,3.1,3.6,22,0.00,,---,0.00,VWS V14.01,2013-02-18 02:11:00,
2013-02-17 18:16:00,36.1,1.0,27.55,WSW,242,2.7,2.7,22,0.00,,---,0.00,VWS V14.01,2013-02-18 02:16:00,
2013-02-17 18:21:00,36.0,0.8,27.55,SW,236,3.1,3.1,22,0.00,,---,0.00,VWS V14.01,2013-02-18 02:21:00,
2013-02-17 18:26:00,35.8,0.7,27.55,SW,229,3.1,4.0,22,0.00,,---,0.00,VWS V14.01,2013-02-18 02:26:00,
2013-02-17 18:31:00,35.6,0.5,27.55,SW,235,3.6,4.0,22,0.00,,---,0.00,VWS V14.01,2013-02-18 02:31:00,
2013-02-17 18:36:00,35.2,0.2,27.55,SW,223,4.0,4.9,22,0.00,,---,0.00,VWS V14.01,2013-02-18 02:36:00,
2013-02-17 18:41:00,35.1,0.1,27.55,SW,226,4.9,5.4,22,0.00,,---,0.00,VWS V14.01,2013-02-18 02:41:00,
2013-02-17 18:46:00,35.1,0.1,27.55,SW,229,5.4,6.7,22,0.00,,---,0.00,VWS V14.01,2013-02-18 02:46:00,
2013-02-17 18:51:00,34.9,-0.1,27.58,WSW,237,4.5,5.4,22,0.00,,---,0.00,VWS V14.01,2013-02-18 02:51:00,
2013-02-17 18:56:00,34.9,-0.1,27.58,SW,223,5.8,5.8,22,0.00,,---,0.00,VWS V14.01,2013-02-18 02:56:00,
2013-02-17 19:01:00,34.9,-0.1,27.58,WSW,251,7.6,7.6,22,0.00,,---,0.00,VWS V14.01,2013-02-18 03:01:00,
2013-02-17 19:06:00,34.9,-0.1,27.55,SW,223,5.8,5.8,22,0.00,,---,0.00,VWS V14.01,2013-02-18 03:06:00,
2013-02-17 19:11:00,34.9,-0.1,27.55,West,260,3.6,5.4,22,0.00,,---,0.00,VWS V14.01,2013-02-18 03:11:00,
2013-02-17 19:16:00,34.9,-0.1,27.55,SW,231,4.0,4.0,22,0.00,,---,0.00,VWS V14.01,2013-02-18 03:16:00,
2013-02-17 19:21:00,34.9,-0.1,27.58,SW,223,5.4,5.4,22,0.00,,---,0.00,VWS V14.01,2013-02-18 03:21:00,
2013-02-17 19:26:00,34.9,-0.1,27.58,SW,220,6.7,7.6,22,0.00,,---,0.00,VWS V14.01,2013-02-18 03:26:00,
2013-02-17 19:31:00,34.7,-0.2,27.58,SW,215,4.0,5.4,22,0.00,,---,0.00,VWS V14.01,2013-02-18 03:31:00,
2013-02-17 19:36:00,34.5,-0.4,27.58,SSW,213,5.4,8.3,22,0.00,,---,0.00,VWS V14.01,2013-02-18 03:36:00,
2013-02-17 19:41:00,34.7,-0.2,27.58,SW,215,6.3,6.3,22,0.00,,---,0.00,VWS V14.01,2013-02-18 03:41:00,
2013-02-17 19:46:00,34.3,-0.6,27.58,SW,216,4.9,5.8,22,0.00,,---,0.00,VWS V14.01,2013-02-18 03:46:00,
2013-02-17 19:51:00,34.3,-0.6,27.58,South,187,5.8,5.8,22,0.00,,---,0.00,VWS V14.01,2013-02-18 03:51:00,
2013-02-17 19:56:00,34.3,-0.6,27.58,SW,221,7.6,7.6,22,0.00,,---,0.00,VWS V14.01,2013-02-18 03:56:00,
2013-02-17 20:01:00,34.3,-0.6,27.58,SW,222,3.1,4.0,22,0.00,,---,0.00,VWS V14.01,2013-02-18 04:01:00,
2013-02-17 20:06:00,34.3,-0.6,27.58,WSW,238,3.6,4.0,22,0.00,,---,0.00,VWS V14.01,2013-02-18 04:06:00,
2013-02-17 20:11:00,34.3,-0.6,27.58,SW,222,2.2,3.6,22,0.00,,---,0.00,VWS V14.01,2013-02-18 04:11:00,
2013-02-17 20:16:00,34.3,-0.6,27.58,West,268,2.2,2.2,22,0.00,,---,0.00,VWS V14.01,2013-02-18 04:16:00,
2013-02-17 20:21:00,34.2,-0.7,27.58,NNW,327,3.1,3.1,22,0.00,,---,0.00,VWS V14.01,2013-02-18 04:21:00,
2013-02-17 20:26:00,34.2,-0.7,27.58,NW,322,0.0,0.0,22,0.00,,---,0.00,VWS V14.01,2013-02-18 04:26:00,
2013-02-17 20:31:00,34.0,-0.9,27.58,WNW,282,2.7,3.1,22,0.00,,---,0.00,VWS V14.01,2013-02-18 04:31:00,
2013-02-17 20:36:00,34.0,-0.9,27.58,West,261,0.0,0.0,22,0.00,,---,0.00,VWS V14.01,2013-02-18 04:36:00,
2013-02-17 20:41:00,34.0,1.9,27.58,West,275,0.0,3.1,25,0.00,,---,0.00,VWS V14.01,2013-02-18 04:41:00,
2013-02-17 20:46:00,34.2,2.0,27.58,NW,304,0.0,0.0,25,0.00,,---,0.00,VWS V14.01,2013-02-18 04:46:00,
2013-02-17 20:51:00,34.2,2.0,27.58,SW,226,2.7,3.1,25,0.00,,---,0.00,VWS V14.01,2013-02-18 04:51:00,
2013-02-17 20:56:00,34.3,2.2,27.58,WSW,238,2.7,4.9,25,0.00,,---,0.00,VWS V14.01,2013-02-18 04:56:00,
2013-02-17 21:02:00,34.3,2.2,27.58,SW,224,3.1,3.6,25,0.00,,---,0.00,VWS V14.01,2013-02-18 05:02:00,
2013-02-17 21:07:00,34.3,2.2,27.58,SW,224,5.4,5.4,25,0.00,,---,0.00,VWS V14.01,2013-02-18 05:07:00,
2013-02-17 21:12:00,34.2,3.7,27.58,SW,230,4.0,4.0,27,0.00,,---,0.00,VWS V14.01,2013-02-18 05:12:00,
2013-02-17 21:17:00,34.2,3.7,27.58,West,275,2.2,2.2,27,0.00,,---,0.00,VWS V14.01,2013-02-18 05:17:00,
2013-02-17 21:22:00,34.2,3.7,27.58,WNW,290,0.0,0.0,27,0.00,,---,0.00,VWS V14.01,2013-02-18 05:22:00,
2013-02-17 21:27:00,34.0,3.5,27.58,WSW,238,3.6,4.0,27,0.00,,---,0.00,VWS V14.01,2013-02-18 05:27:00,
2013-02-17 21:32:00,34.0,3.5,27.58,SW,226,2.7,3.6,27,0.00,,---,0.00,VWS V14.01,2013-02-18 05:32:00,
2013-02-17 21:37:00,34.0,3.5,27.58,WSW,257,3.1,3.6,27,0.00,,---,0.00,VWS V14.01,2013-02-18 05:37:00,
2013-02-17 21:41:00,33.8,3.4,27.58,West,265,3.6,3.6,27,0.00,,---,0.00,VWS V14.01,2013-02-18 05:41:00,
2013-02-17 21:46:00,33.8,3.4,27.58,WSW,253,3.1,3.6,27,0.00,,---,0.00,VWS V14.01,2013-02-18 05:46:00,
2013-02-17 21:51:00,33.6,4.0,27.58,WSW,257,2.2,2.7,28,0.00,,---,0.00,VWS V14.01,2013-02-18 05:51:00,
2013-02-17 21:56:00,33.6,5.5,27.58,SW,231,4.0,4.0,30,0.00,,---,0.00,VWS V14.01,2013-02-18 05:56:00,
2013-02-17 22:01:00,33.4,5.3,27.58,SW,227,4.0,4.0,30,0.00,,---,0.00,VWS V14.01,2013-02-18 06:01:00,
2013-02-17 22:06:00,33.3,5.2,27.58,SW,236,3.6,4.5,30,0.00,,---,0.00,VWS V14.01,2013-02-18 06:06:00,
2013-02-17 22:11:00,33.1,5.0,27.58,SW,226,3.6,3.6,30,0.00,,---,0.00,VWS V14.01,2013-02-18 06:11:00,
2013-02-17 22:16:00,32.9,4.9,27.58,SW,229,3.6,4.0,30,0.00,,---,0.00,VWS V14.01,2013-02-18 06:16:00,
2013-02-17 22:21:00,32.7,4.7,27.58,SW,236,4.9,4.9,30,0.00,,---,0.00,VWS V14.01,2013-02-18 06:21:00,
2013-02-17 22:26:00,32.9,4.9,27.58,SW,231,3.1,4.0,30,0.00,,---,0.00,VWS V14.01,2013-02-18 06:26:00,
2013-02-17 22:31:00,32.9,4.9,27.58,SW,228,3.1,3.1,30,0.00,,---,0.00,VWS V14.01,2013-02-18 06:31:00,
2013-02-17 22:36:00,32.7,4.7,27.58,SW,228,2.7,3.1,30,0.00,,---,0.00,VWS V14.01,2013-02-18 06:36:00,
2013-02-17 22:41:00,32.7,4.7,27.58,SW,228,0.0,0.0,30,0.00,,---,0.00,VWS V14.01,2013-02-18 06:41:00,
2013-02-17 22:46:00,32.5,4.6,27.58,SW,228,0.0,0.0,30,0.00,,---,0.00,VWS V14.01,2013-02-18 06:46:00,
2013-02-17 22:51:00,32.2,4.2,27.58,SW,228,0.0,0.0,30,0.00,,---,0.00,VWS V14.01,2013-02-18 06:51:00,
2013-02-17 22:56:00,32.0,4.1,27.58,SW,228,0.0,0.0,30,0.00,,---,0.00,VWS V14.01,2013-02-18 06:56:00,
2013-02-17 23:01:00,31.1,4.0,27.58,SW,228,0.0,0.0,31,0.00,,---,0.00,VWS V14.01,2013-02-18 07:01:00,
2013-02-17 23:06:00,30.6,3.5,27.58,SW,228,0.0,0.0,31,0.00,,---,0.00,VWS V14.01,2013-02-18 07:06:00,
2013-02-17 23:11:00,30.2,3.9,27.58,SW,228,0.0,0.0,32,0.00,,---,0.00,VWS V14.01,2013-02-18 07:11:00,
2013-02-17 23:16:00,30.0,4.4,27.58,SW,229,0.0,0.0,33,0.00,,---,0.00,VWS V14.01,2013-02-18 07:16:00,
2013-02-17 23:21:00,29.7,4.1,27.58,SW,228,0.0,0.0,33,0.00,,---,0.00,VWS V14.01,2013-02-18 07:21:00,
2013-02-17 23:26:00,29.3,4.4,27.58,SW,228,0.0,0.0,34,0.00,,---,0.00,VWS V14.01,2013-02-18 07:26:00,
2013-02-17 23:31:00,29.3,5.1,27.58,SW,228,0.0,0.0,35,0.00,,---,0.00,VWS V14.01,2013-02-18 07:31:00,
2013-02-17 23:36:00,29.7,4.7,27.58,SW,228,0.0,0.0,34,0.00,,---,0.00,VWS V14.01,2013-02-18 07:36:00,
2013-02-17 23:41:00,29.7,4.7,27.58,SW,228,0.0,0.0,34,0.00,,---,0.00,VWS V14.01,2013-02-18 07:41:00,
2013-02-17 23:46:00,29.3,3.8,27.58,SW,228,0.0,0.0,33,0.00,,---,0.00,VWS V14.01,2013-02-18 07:46:00,
2013-02-17 23:51:00,28.9,4.1,27.58,SW,228,0.0,0.0,34,0.00,,---,0.00,VWS V14.01,2013-02-18 07:51:00,
2013-02-17 23:56:00,28.9,4.1,27.58,SW,228,0.0,0.0,34,0.00,,---,0.00,VWS V14.01,2013-02-18 07:56:00,